createdAt,value
2018-11-21T00:01:46.098Z,86.76
2018-11-21T00:04:51.243Z,86.73
2018-11-21T00:07:56.381Z,86.40
2018-11-21T00:11:01.536Z,86.46
2018-11-21T00:14:07.313Z,86.71
2018-11-21T00:17:12.411Z,86.85
2018-11-21T00:20:17.541Z,86.64
2018-11-21T00:23:22.648Z,86.77
2018-11-21T00:26:28.321Z,86.93
2018-11-21T00:29:33.427Z,86.87
2018-11-21T00:32:38.547Z,86.83
2018-11-21T00:35:43.735Z,86.83
2018-11-21T00:38:48.886Z,86.66
2018-11-21T00:41:54.234Z,86.90
2018-11-21T00:44:59.339Z,86.91
2018-11-21T00:48:04.423Z,86.97
2018-11-21T00:51:09.835Z,86.90
2018-11-21T00:54:15.005Z,87.11
2018-11-21T00:57:20.112Z,87.19
2018-11-21T01:00:25.235Z,87.13
2018-11-21T01:03:30.347Z,86.91
2018-11-21T01:06:35.458Z,87.19
2018-11-21T01:09:40.549Z,87.00
2018-11-21T01:12:45.687Z,87.19
2018-11-21T01:15:50.807Z,87.04
2018-11-21T01:18:55.923Z,87.16
2018-11-21T01:22:01.040Z,87.09
2018-11-21T01:25:06.805Z,87.13
2018-11-21T01:28:11.935Z,87.07
2018-11-21T01:31:17.021Z,87.03
2018-11-21T01:34:22.126Z,86.93
2018-11-21T01:37:27.246Z,86.71
2018-11-21T01:40:32.340Z,86.88
2018-11-21T01:43:37.447Z,86.92
2018-11-21T01:46:42.548Z,87.12
2018-11-21T01:49:47.733Z,87.06
2018-11-21T01:53:11.831Z,87.15
2018-11-21T01:56:16.922Z,87.26
2018-11-21T01:59:22.034Z,87.30
2018-11-21T02:02:27.126Z,87.24
2018-11-21T02:05:32.281Z,87.09
2018-11-21T02:08:56.363Z,87.07
2018-11-21T02:12:01.475Z,87.26
2018-11-21T02:15:06.815Z,87.19
2018-11-21T02:18:11.897Z,87.25
2018-11-21T02:21:17.044Z,87.27
2018-11-21T02:24:22.149Z,87.38
2018-11-21T02:27:27.264Z,87.45
2018-11-21T02:30:32.388Z,87.39
2018-11-21T02:33:37.486Z,87.31
2018-11-21T02:36:42.580Z,87.45
2018-11-21T02:39:47.672Z,87.32
2018-11-21T02:42:53.032Z,87.19
2018-11-21T02:45:58.144Z,87.20
2018-11-21T02:49:03.274Z,87.22
2018-11-21T02:52:08.393Z,87.17
2018-11-21T02:55:13.482Z,87.39
2018-11-21T02:58:18.580Z,87.12
2018-11-21T03:01:23.683Z,87.05
2018-11-21T03:04:29.071Z,87.08
2018-11-21T03:07:54.379Z,87.19
2018-11-21T03:10:59.491Z,87.11
2018-11-21T03:14:04.585Z,87.15
2018-11-21T03:17:09.694Z,87.07
2018-11-21T03:20:14.912Z,87.10
2018-11-21T03:23:20.001Z,87.14
2018-11-21T03:26:25.173Z,87.36
2018-11-21T03:29:30.223Z,87.27
2018-11-21T03:32:35.316Z,87.35
2018-11-21T03:35:40.433Z,87.37
2018-11-21T03:38:45.531Z,87.29
2018-11-21T03:41:50.647Z,87.24
2018-11-21T03:44:55.934Z,87.34
2018-11-21T03:48:20.016Z,87.30
2018-11-21T03:51:25.139Z,87.23
2018-11-21T03:54:30.246Z,87.40
2018-11-21T03:57:35.525Z,87.22
2018-11-21T04:00:40.653Z,87.20
2018-11-21T04:03:45.763Z,87.08
2018-11-21T04:07:09.932Z,86.88
2018-11-21T04:10:15.048Z,87.11
2018-11-21T04:13:20.164Z,86.91
2018-11-21T04:16:25.263Z,86.89
2018-11-21T04:19:30.395Z,86.79
2018-11-21T04:22:35.594Z,86.99
2018-11-21T04:25:40.734Z,87.03
2018-11-21T04:28:46.065Z,87.05
2018-11-21T04:31:51.162Z,86.96
2018-11-21T04:34:56.357Z,86.99
2018-11-21T04:38:01.479Z,86.90
2018-11-21T04:41:06.968Z,86.69
2018-11-21T04:44:12.092Z,87.01
2018-11-21T04:47:17.174Z,86.88
2018-11-21T04:50:22.309Z,87.10
2018-11-21T04:53:28.126Z,87.04
2018-11-21T04:56:32.920Z,87.06
2018-11-21T04:59:38.023Z,87.06
2018-11-21T05:02:43.191Z,87.11
2018-11-21T05:05:48.272Z,87.02
2018-11-21T05:08:53.389Z,87.19
2018-11-21T05:11:58.565Z,86.86
2018-11-21T05:15:03.681Z,86.84
2018-11-21T05:18:08.811Z,86.90
2018-11-21T05:21:13.926Z,86.71
2018-11-21T05:24:19.025Z,86.56
2018-11-21T05:27:24.128Z,86.36
2018-11-21T05:30:29.498Z,86.51
2018-11-21T05:33:34.584Z,86.57
2018-11-21T05:36:58.657Z,86.48
2018-11-21T05:40:03.797Z,86.67
2018-11-21T05:43:08.927Z,86.76
2018-11-21T05:46:14.160Z,86.83
2018-11-21T05:49:19.188Z,86.69
2018-11-21T05:52:24.305Z,86.64
2018-11-21T05:55:29.431Z,86.76
2018-11-21T05:58:34.878Z,86.66
2018-11-21T06:01:40.029Z,86.70
2018-11-21T06:04:45.147Z,86.79
2018-11-21T06:07:50.258Z,87.07
2018-11-21T06:10:55.423Z,86.88
2018-11-21T06:14:00.840Z,86.83
2018-11-21T06:17:06.189Z,86.71
2018-11-21T06:20:13.276Z,86.58
2018-11-21T06:23:18.387Z,86.77
2018-11-21T06:26:23.513Z,86.83
2018-11-21T06:29:28.746Z,86.73
2018-11-21T06:32:33.864Z,86.68
2018-11-21T06:35:38.958Z,86.73
2018-11-21T06:38:44.303Z,86.85
2018-11-21T06:41:49.464Z,86.85
2018-11-21T06:44:54.580Z,86.75
2018-11-21T06:47:59.686Z,87.04
2018-11-21T06:51:04.835Z,87.10
2018-11-21T06:54:12.283Z,86.90
2018-11-21T06:57:17.544Z,87.00
2018-11-21T07:00:22.651Z,87.19
2018-11-21T07:03:27.739Z,87.20
2018-11-21T07:06:32.847Z,87.00
2018-11-21T07:09:37.949Z,87.13
2018-11-21T07:12:43.744Z,87.17
2018-11-21T07:15:48.835Z,87.22
2018-11-21T07:18:53.983Z,87.14
2018-11-21T07:21:59.092Z,87.33
2018-11-21T07:25:04.933Z,87.28
2018-11-21T07:28:13.128Z,87.27
2018-11-21T07:31:15.431Z,87.27
2018-11-21T07:34:21.611Z,87.14
2018-11-21T07:37:25.705Z,87.33
2018-11-21T07:44:09.122Z,87.37
2018-11-21T07:47:14.613Z,87.61
2018-11-21T07:50:21.081Z,87.46
2018-11-21T07:53:26.223Z,87.39
2018-11-21T07:57:09.377Z,87.52
2018-11-21T08:01:11.242Z,87.50
2018-11-21T08:04:24.336Z,87.79
2018-11-21T08:07:48.149Z,87.76
2018-11-21T08:11:12.735Z,87.67
2018-11-21T08:14:36.538Z,87.71
2018-11-21T08:18:00.361Z,88.01
2018-11-21T08:21:24.263Z,87.93
2018-11-21T08:24:48.108Z,87.85
2018-11-21T08:28:11.920Z,87.80
2018-11-21T08:31:17.040Z,87.87
2018-11-21T08:34:22.119Z,87.74
2018-11-21T08:37:27.224Z,87.84
2018-11-21T08:40:32.502Z,87.66
2018-11-21T08:43:37.585Z,87.83
2018-11-21T08:46:42.696Z,87.55
2018-11-21T08:49:47.804Z,87.61
2018-11-21T08:52:52.900Z,87.58
2018-11-21T08:55:58.007Z,87.39
2018-11-21T08:59:03.104Z,87.41
2018-11-21T09:02:08.193Z,87.42
2018-11-21T09:05:13.557Z,87.23
2018-11-21T09:08:18.652Z,87.48
2018-11-21T09:11:23.784Z,87.36
2018-11-21T09:14:29.181Z,87.21
2018-11-21T09:17:34.271Z,87.23
2018-11-21T09:20:39.362Z,87.34
2018-11-21T09:23:44.487Z,87.30
2018-11-21T09:26:49.874Z,87.11
2018-11-21T09:29:54.977Z,87.13
2018-11-21T09:33:00.700Z,87.21
2018-11-21T09:36:05.825Z,87.05
2018-11-21T09:39:12.634Z,86.92
2018-11-21T09:42:17.830Z,87.13
2018-11-21T09:45:23.748Z,86.99
2018-11-21T09:48:28.906Z,86.90
2018-11-21T09:51:33.997Z,86.86
2018-11-21T09:54:39.355Z,86.97
2018-11-21T09:57:44.542Z,86.96
2018-11-21T10:01:27.618Z,86.78
2018-11-21T10:04:32.747Z,86.90
2018-11-21T10:07:42.500Z,87.04
2018-11-21T10:10:47.625Z,86.71
2018-11-21T10:13:52.735Z,86.68
2018-11-21T10:16:57.858Z,86.64
2018-11-21T10:20:02.977Z,86.78
2018-11-21T10:23:08.087Z,86.85
2018-11-21T10:26:13.200Z,86.84
2018-11-21T10:29:18.323Z,86.54
2018-11-21T10:32:23.426Z,86.53
2018-11-21T10:35:28.571Z,86.28
2018-11-21T10:38:33.676Z,86.65
2018-11-21T10:41:38.825Z,86.61
2018-11-21T10:44:43.920Z,86.73
2018-11-21T10:47:49.055Z,86.57
2018-11-21T10:50:54.169Z,86.62
2018-11-21T10:53:59.246Z,86.72
2018-11-21T10:57:23.317Z,86.60
2018-11-21T11:01:06.118Z,86.62
2018-11-21T11:04:48.913Z,86.27
2018-11-21T11:08:12.814Z,86.24
2018-11-21T11:11:36.595Z,85.59
2018-11-21T11:15:00.396Z,85.65
2018-11-21T11:18:43.183Z,86.20
2018-11-21T11:22:25.977Z,86.22
2018-11-21T11:26:01.642Z,86.31
2018-11-21T11:29:25.508Z,86.24
2018-11-21T11:33:08.279Z,86.17
2018-11-21T11:36:32.071Z,86.28
2018-11-21T11:39:55.874Z,86.08
2018-11-21T11:43:19.684Z,85.78
2018-11-21T11:47:02.475Z,85.90
2018-11-21T11:50:27.045Z,86.15
2018-11-21T11:53:51.036Z,86.08
2018-11-21T11:57:33.813Z,86.00
2018-11-21T12:01:16.599Z,85.77
2018-11-21T12:04:59.373Z,85.69
2018-11-21T12:08:42.168Z,85.58
2018-11-21T12:12:24.948Z,85.66
2018-11-21T12:16:07.748Z,85.51
2018-11-21T12:19:31.538Z,85.23
2018-11-21T12:22:55.338Z,85.15
2018-11-21T12:26:38.143Z,85.48
2018-11-21T12:30:01.940Z,85.76
2018-11-21T12:33:44.756Z,85.48
2018-11-21T12:37:08.560Z,85.43
2018-11-21T12:40:32.378Z,85.71
2018-11-21T12:44:15.168Z,85.17
2018-11-21T12:47:38.966Z,85.27
2018-11-21T12:51:21.759Z,85.35
2018-11-21T12:54:45.547Z,85.35
2018-11-21T12:58:15.725Z,85.18
2018-11-21T13:01:58.506Z,85.63
2018-11-21T13:05:22.364Z,85.41
2018-11-21T13:08:46.162Z,85.71
2018-11-21T13:12:28.979Z,85.62
2018-11-21T13:19:42.035Z,85.42
2018-11-21T13:23:24.825Z,85.59
2018-11-21T13:27:07.575Z,85.79
2018-11-21T13:33:48.810Z,85.75
2018-11-21T13:37:12.625Z,86.09
2018-11-21T13:40:55.415Z,86.10
2018-11-21T13:44:19.216Z,85.99
2018-11-21T13:47:57.334Z,85.85
2018-11-21T13:51:40.130Z,85.76
2018-11-21T13:55:04.806Z,85.83
2018-11-21T13:58:28.872Z,85.86
2018-11-21T14:01:33.942Z,85.50
2018-11-21T14:04:39.003Z,85.71
2018-11-21T14:08:03.083Z,85.75
2018-11-21T14:11:08.155Z,85.64
2018-11-21T14:14:13.227Z,85.82
2018-11-21T14:17:18.293Z,85.70
2018-11-21T14:20:42.343Z,85.53
2018-11-21T14:24:06.414Z,85.69
2018-11-21T14:27:11.499Z,85.73
2018-11-21T14:30:36.021Z,85.83
2018-11-21T14:33:41.484Z,85.84
2018-11-21T14:36:46.592Z,85.63
2018-11-21T14:39:51.734Z,85.92
2018-11-21T14:42:56.807Z,85.84
2018-11-21T14:46:01.889Z,85.95
2018-11-21T14:49:07.708Z,85.81
2018-11-21T14:52:31.758Z,85.95
2018-11-21T14:55:36.849Z,85.76
2018-11-21T14:58:41.909Z,85.84
2018-11-21T15:01:46.991Z,85.59
2018-11-21T15:04:52.049Z,85.79
2018-11-21T15:08:16.124Z,85.83
2018-11-21T15:11:21.195Z,85.86
2018-11-21T15:14:26.254Z,85.97
2018-11-21T15:17:31.324Z,86.06
2018-11-21T15:20:55.397Z,86.20
2018-11-21T15:24:00.472Z,86.16
2018-11-21T15:27:24.529Z,86.01
2018-11-21T15:30:30.393Z,86.03
2018-11-21T15:33:35.459Z,86.01
2018-11-21T15:36:59.530Z,86.10
2018-11-21T15:40:24.784Z,86.27
2018-11-21T15:43:29.840Z,86.18
2018-11-21T15:46:34.917Z,86.06
2018-11-21T15:49:39.986Z,86.22
2018-11-21T15:52:45.524Z,86.11
2018-11-21T15:55:50.113Z,86.21
2018-11-21T15:58:55.235Z,86.16
2018-11-21T16:02:19.298Z,85.93
2018-11-21T16:05:24.718Z,85.98
2018-11-21T16:08:29.783Z,86.38
2018-11-21T16:11:53.899Z,86.22
2018-11-21T16:14:59.033Z,86.42
2018-11-21T16:18:04.300Z,86.26
2018-11-21T16:21:09.490Z,86.22
2018-11-21T16:24:14.628Z,86.23
2018-11-21T16:27:19.760Z,86.31
2018-11-21T16:30:25.970Z,86.43
2018-11-21T16:33:31.110Z,86.43
2018-11-21T16:36:36.237Z,86.43
2018-11-21T16:39:41.393Z,86.46
2018-11-21T16:42:46.827Z,86.63
2018-11-21T16:45:53.942Z,86.49
2018-11-21T16:48:59.161Z,86.50
2018-11-21T16:52:04.352Z,86.68
2018-11-21T16:55:11.385Z,86.77
2018-11-21T17:01:32.595Z,86.73
2018-11-21T17:04:37.690Z,86.84
2018-11-21T17:10:59.741Z,86.70
2018-11-21T17:14:04.822Z,86.73
2018-11-21T17:17:09.995Z,86.64
2018-11-21T17:20:36.130Z,86.68
2018-11-21T17:23:41.253Z,86.71
2018-11-21T17:26:46.334Z,86.66
2018-11-21T17:30:10.847Z,86.76
2018-11-21T17:33:15.949Z,86.73
2018-11-21T17:36:21.087Z,86.56
2018-11-21T17:39:26.116Z,86.71
2018-11-21T17:42:31.210Z,86.68
2018-11-21T17:45:36.303Z,86.59
2018-11-21T17:48:41.396Z,86.70
2018-11-21T17:51:46.469Z,86.50
2018-11-21T17:54:51.573Z,86.71
2018-11-21T17:57:56.661Z,86.63
2018-11-21T18:01:01.781Z,86.74
2018-11-21T18:04:07.026Z,86.91
2018-11-21T18:07:12.030Z,86.99
2018-11-21T18:10:21.864Z,86.99
2018-11-21T18:13:26.517Z,87.07
2018-11-21T18:16:31.602Z,87.02
2018-11-21T18:19:36.707Z,87.08
2018-11-21T18:22:42.405Z,86.87
2018-11-21T18:25:47.958Z,86.92
2018-11-21T18:28:53.060Z,86.82
2018-11-21T18:31:58.150Z,87.01
2018-11-21T18:35:03.367Z,86.93
2018-11-21T18:38:08.468Z,87.01
2018-11-21T18:41:13.571Z,86.93
2018-11-21T18:44:18.941Z,86.92
2018-11-21T18:47:24.021Z,86.86
2018-11-21T18:50:29.125Z,86.97
2018-11-21T18:57:36.424Z,86.99
2018-11-21T19:00:42.654Z,86.83
2018-11-21T19:03:47.749Z,86.85
2018-11-21T19:06:52.836Z,86.87
2018-11-21T19:09:57.924Z,87.06
2018-11-21T19:13:03.019Z,87.01
2018-11-21T19:16:08.099Z,87.01
2018-11-21T19:19:13.218Z,87.19
2018-11-21T19:22:26.097Z,87.15
2018-11-21T19:25:31.682Z,86.97
2018-11-21T19:28:36.819Z,87.06
2018-11-21T19:31:41.996Z,87.06
2018-11-21T19:34:47.091Z,87.02
2018-11-21T19:37:52.180Z,87.15
2018-11-21T19:40:57.261Z,87.20
2018-11-21T19:44:02.361Z,87.29
2018-11-21T19:47:07.676Z,87.30
2018-11-21T19:50:14.499Z,87.22
2018-11-21T19:53:19.574Z,87.11
2018-11-21T19:56:24.958Z,87.36
2018-11-21T19:59:30.084Z,87.18
2018-11-21T20:02:35.241Z,87.16
2018-11-21T20:05:40.313Z,87.41
2018-11-21T20:08:45.386Z,87.33
2018-11-21T20:11:50.488Z,87.30
2018-11-21T20:14:55.636Z,87.17
2018-11-21T20:18:02.057Z,87.39
2018-11-21T20:21:07.221Z,87.43
2018-11-21T20:24:12.314Z,87.25
2018-11-21T20:27:17.491Z,87.37
2018-11-21T20:30:24.136Z,87.37
2018-11-21T20:33:29.225Z,87.46
2018-11-21T20:36:34.374Z,87.34
2018-11-21T20:39:39.528Z,87.41
2018-11-21T20:42:45.233Z,87.44
2018-11-21T20:45:50.327Z,87.54
2018-11-21T20:48:55.429Z,87.27
2018-11-21T20:52:00.807Z,87.35
2018-11-21T20:55:06.518Z,87.40
2018-11-21T20:58:11.636Z,87.39
2018-11-21T21:01:16.726Z,87.41
2018-11-21T21:04:22.106Z,87.29
2018-11-21T21:07:27.190Z,87.39
2018-11-21T21:10:33.855Z,87.36
2018-11-21T21:13:38.947Z,87.45
2018-11-21T21:16:44.034Z,87.51
2018-11-21T21:19:49.138Z,87.47
2018-11-21T21:22:55.849Z,87.37
2018-11-21T21:26:00.943Z,87.25
2018-11-21T21:29:06.533Z,87.41
2018-11-21T21:32:11.622Z,87.60
2018-11-21T21:35:17.742Z,87.68
2018-11-21T21:38:22.838Z,87.77
2018-11-21T21:41:28.005Z,87.67
2018-11-21T21:44:33.110Z,87.68
2018-11-21T21:47:41.655Z,87.60
2018-11-21T21:50:43.368Z,87.63
2018-11-21T21:53:48.490Z,87.60
2018-11-21T21:56:53.583Z,87.58
2018-11-21T21:59:58.675Z,87.53
2018-11-21T22:03:03.767Z,87.57
2018-11-21T22:06:08.875Z,87.56
2018-11-21T22:09:14.299Z,87.56
2018-11-21T22:12:19.404Z,87.65
2018-11-21T22:15:32.366Z,87.54
2018-11-21T22:18:37.463Z,87.85
2018-11-21T22:21:42.568Z,87.93
2018-11-21T22:24:47.658Z,87.73
2018-11-21T22:27:52.733Z,87.63
2018-11-21T22:30:57.820Z,87.64
2018-11-21T22:34:02.900Z,87.65
2018-11-21T22:37:07.983Z,87.67
2018-11-21T22:40:14.824Z,87.74
2018-11-21T22:43:19.919Z,87.63
2018-11-21T22:46:24.989Z,87.39
2018-11-21T22:49:30.086Z,87.28
2018-11-21T22:52:35.176Z,87.65
2018-11-21T22:55:40.262Z,87.59
2018-11-21T22:58:45.372Z,87.73
2018-11-21T23:01:50.450Z,87.67
2018-11-21T23:05:14.521Z,87.64
2018-11-21T23:08:19.609Z,87.79
2018-11-21T23:11:24.683Z,87.68
2018-11-21T23:14:29.773Z,87.68
2018-11-21T23:17:34.871Z,87.73
2018-11-21T23:20:39.965Z,87.80
2018-11-21T23:23:45.044Z,87.74
2018-11-21T23:26:50.141Z,87.73
2018-11-21T23:29:55.221Z,87.74
2018-11-21T23:33:00.315Z,87.65
2018-11-21T23:36:05.421Z,87.73
2018-11-21T23:39:10.825Z,87.90
2018-11-21T23:42:15.939Z,87.84
2018-11-21T23:45:20.998Z,87.66
2018-11-21T23:48:26.086Z,87.83
2018-11-21T23:51:31.152Z,87.86
2018-11-21T23:54:36.236Z,87.71
2018-11-21T23:57:41.329Z,87.91
